createdAt,value
2022-10-19T00:01:14.909Z,65.50
2022-10-19T00:03:41.452Z,65.50
2022-10-19T00:06:07.988Z,65.40
2022-10-19T00:08:34.484Z,65.40
2022-10-19T00:11:00.958Z,65.40
2022-10-19T00:13:27.465Z,65.20
2022-10-19T00:15:53.950Z,65.20
2022-10-19T00:18:20.642Z,65.80
2022-10-19T00:20:47.123Z,65.10
2022-10-19T00:23:13.642Z,65.00
2022-10-19T00:25:40.098Z,65.00
2022-10-19T00:28:06.561Z,64.90
2022-10-19T00:30:33.034Z,64.90
2022-10-19T00:32:59.513Z,64.80
2022-10-19T00:35:25.999Z,64.80
2022-10-19T00:37:52.483Z,64.70
2022-10-19T00:40:18.961Z,64.60
2022-10-19T00:42:45.435Z,64.60
2022-10-19T00:45:11.906Z,64.60
2022-10-19T00:47:38.370Z,64.50
2022-10-19T00:50:04.860Z,64.50
2022-10-19T00:52:31.632Z,64.40
2022-10-19T00:54:58.266Z,64.40
2022-10-19T00:57:24.728Z,65.20
2022-10-19T00:59:51.212Z,64.30
2022-10-19T01:02:17.674Z,64.20
2022-10-19T01:04:44.156Z,64.20
2022-10-19T01:07:10.641Z,64.10
2022-10-19T01:09:37.137Z,64.10
2022-10-19T01:12:03.611Z,64.00
2022-10-19T01:14:30.089Z,63.90
2022-10-19T01:16:56.551Z,63.80
2022-10-19T01:19:23.027Z,63.80
2022-10-19T01:21:49.500Z,63.80
2022-10-19T01:24:15.996Z,63.60
2022-10-19T01:26:42.469Z,63.70
2022-10-19T01:29:09.009Z,63.60
2022-10-19T01:31:35.506Z,63.70
2022-10-19T01:34:02.002Z,63.50
2022-10-19T01:36:28.480Z,63.50
2022-10-19T01:38:54.984Z,63.40
2022-10-19T01:41:21.472Z,63.40
2022-10-19T01:43:47.949Z,63.30
2022-10-19T01:46:14.399Z,63.40
2022-10-19T01:48:40.858Z,63.20
2022-10-19T01:51:07.332Z,63.10
2022-10-19T01:53:33.812Z,63.10
2022-10-19T01:56:00.299Z,63.90
2022-10-19T01:58:26.756Z,63.00
2022-10-19T02:00:53.416Z,62.90
2022-10-19T02:03:24.558Z,62.80
2022-10-19T02:05:51.047Z,62.90
2022-10-19T02:08:17.531Z,62.90
2022-10-19T02:10:44.005Z,62.90
2022-10-19T02:13:10.491Z,62.80
2022-10-19T02:15:37.101Z,62.90
2022-10-19T02:18:03.577Z,62.80
2022-10-19T02:20:30.042Z,62.70
2022-10-19T02:22:56.507Z,62.60
2022-10-19T02:25:22.985Z,62.60
2022-10-19T02:27:49.457Z,62.50
2022-10-19T02:30:16.077Z,62.40
2022-10-19T02:32:48.498Z,62.50
2022-10-19T02:35:14.972Z,62.50
2022-10-19T02:37:41.433Z,62.50
2022-10-19T02:40:07.906Z,62.50
2022-10-19T02:42:34.626Z,62.30
2022-10-19T02:45:01.333Z,62.30
2022-10-19T02:47:27.801Z,62.10
2022-10-19T02:49:54.299Z,62.80
2022-10-19T02:52:20.783Z,62.00
2022-10-19T02:54:47.275Z,62.10
2022-10-19T02:57:13.739Z,61.90
2022-10-19T02:59:40.207Z,62.00
2022-10-19T03:02:06.662Z,62.00
2022-10-19T03:04:33.120Z,61.90
2022-10-19T03:06:59.579Z,61.80
2022-10-19T03:09:26.051Z,61.90
2022-10-19T03:11:52.525Z,61.70
2022-10-19T03:14:18.991Z,61.80
2022-10-19T03:16:45.459Z,61.70
2022-10-19T03:19:11.952Z,61.70
2022-10-19T03:21:38.421Z,61.60
2022-10-19T03:24:04.889Z,61.60
2022-10-19T03:26:31.367Z,61.50
2022-10-19T03:28:57.898Z,61.40
2022-10-19T03:31:24.419Z,61.40
2022-10-19T03:33:50.891Z,61.30
2022-10-19T03:36:17.357Z,61.20
2022-10-19T03:38:43.838Z,61.20
2022-10-19T03:41:10.325Z,61.20
2022-10-19T03:43:36.799Z,61.10
2022-10-19T03:46:03.286Z,60.90
2022-10-19T03:48:29.747Z,61.00
2022-10-19T03:50:56.231Z,61.00
2022-10-19T03:53:22.690Z,61.00
2022-10-19T03:55:49.160Z,60.90
2022-10-19T03:58:15.627Z,60.90
2022-10-19T04:00:42.133Z,61.00
2022-10-19T04:03:08.648Z,61.00
2022-10-19T04:05:35.109Z,60.80
2022-10-19T04:08:01.592Z,60.80
2022-10-19T04:10:30.588Z,60.60
2022-10-19T04:12:57.073Z,60.60
2022-10-19T04:15:23.541Z,60.70
2022-10-19T04:17:50.022Z,60.90
2022-10-19T04:20:16.644Z,60.80
2022-10-19T04:22:43.127Z,60.70
2022-10-19T04:25:09.623Z,60.50
2022-10-19T04:27:36.393Z,60.40
2022-10-19T04:30:03.101Z,60.50
2022-10-19T04:32:29.589Z,60.40
2022-10-19T04:34:56.058Z,60.50
2022-10-19T04:37:22.535Z,60.30
2022-10-19T04:39:48.999Z,60.20
2022-10-19T04:42:15.482Z,60.40
2022-10-19T04:44:41.949Z,60.10
2022-10-19T04:47:08.417Z,60.20
2022-10-19T04:49:34.881Z,60.30
2022-10-19T04:52:01.356Z,60.30
2022-10-19T04:54:27.825Z,60.10
2022-10-19T04:56:54.301Z,60.10
2022-10-19T04:59:20.760Z,60.00
2022-10-19T05:01:47.506Z,60.20
2022-10-19T05:04:14.074Z,60.00
2022-10-19T05:06:40.562Z,60.00
2022-10-19T05:09:07.025Z,60.00
2022-10-19T05:11:33.486Z,60.00
2022-10-19T05:13:59.952Z,60.00
2022-10-19T05:16:26.421Z,59.90
2022-10-19T05:18:52.920Z,60.00
2022-10-19T05:21:19.398Z,59.90
2022-10-19T05:23:45.869Z,59.90
2022-10-19T05:26:12.343Z,60.10
2022-10-19T05:28:38.886Z,60.00
2022-10-19T05:31:05.414Z,59.90
2022-10-19T05:33:31.899Z,60.00
2022-10-19T05:35:58.365Z,59.90
2022-10-19T05:38:24.818Z,60.00
2022-10-19T05:40:53.575Z,60.00
2022-10-19T05:43:20.306Z,59.80
2022-10-19T05:45:46.781Z,59.80
2022-10-19T05:48:13.245Z,59.70
2022-10-19T05:50:39.720Z,59.70
2022-10-19T05:53:06.171Z,59.70
2022-10-19T05:55:32.635Z,59.70
2022-10-19T05:57:59.089Z,59.80
2022-10-19T06:00:25.584Z,59.50
2022-10-19T06:02:54.667Z,59.60
2022-10-19T06:05:24.708Z,59.60
2022-10-19T06:07:51.169Z,59.70
2022-10-19T06:10:17.640Z,59.70
2022-10-19T06:12:44.126Z,59.50
2022-10-19T06:15:10.599Z,59.40
2022-10-19T06:17:37.140Z,59.50
2022-10-19T06:20:03.723Z,60.30
2022-10-19T06:22:30.200Z,59.40
2022-10-19T06:24:56.667Z,59.40
2022-10-19T06:27:23.204Z,59.60
2022-10-19T06:29:49.700Z,59.30
2022-10-19T06:32:16.183Z,59.40
2022-10-19T06:34:42.645Z,59.40
2022-10-19T06:37:09.107Z,59.40
2022-10-19T06:39:35.581Z,59.30
2022-10-19T06:42:02.069Z,59.30
2022-10-19T06:44:28.547Z,59.30
2022-10-19T06:46:55.011Z,59.40
2022-10-19T06:49:21.488Z,59.30
2022-10-19T06:51:47.947Z,59.30
2022-10-19T06:54:14.427Z,59.20
2022-10-19T06:56:40.911Z,59.20
2022-10-19T06:59:07.399Z,59.30
2022-10-19T07:01:33.867Z,59.10
2022-10-19T07:04:00.333Z,59.10
2022-10-19T07:06:26.826Z,59.10
2022-10-19T07:08:53.295Z,59.00
2022-10-19T07:11:19.786Z,59.20
2022-10-19T07:13:46.260Z,59.00
2022-10-19T07:16:16.053Z,59.10
2022-10-19T07:18:46.135Z,59.00
2022-10-19T07:21:12.615Z,59.00
2022-10-19T07:23:39.071Z,58.90
2022-10-19T07:26:05.642Z,59.10
2022-10-19T07:28:32.119Z,59.10
2022-10-19T07:30:58.576Z,59.10
2022-10-19T07:33:25.055Z,59.00
2022-10-19T07:35:51.538Z,58.90
2022-10-19T07:38:18.183Z,59.00
2022-10-19T07:40:47.283Z,59.10
2022-10-19T07:43:14.091Z,59.00
2022-10-19T07:45:40.567Z,58.90
2022-10-19T07:48:07.033Z,59.00
2022-10-19T07:50:33.500Z,59.10
2022-10-19T07:52:59.974Z,59.10
2022-10-19T07:55:26.452Z,59.10
2022-10-19T07:57:52.918Z,59.00
2022-10-19T08:00:19.396Z,59.10
2022-10-19T08:03:05.034Z,59.10
2022-10-19T08:05:32.327Z,59.10
2022-10-19T08:07:58.814Z,59.10
2022-10-19T08:10:25.295Z,59.00
2022-10-19T08:12:51.777Z,59.00
2022-10-19T08:15:18.260Z,59.30
2022-10-19T08:17:44.751Z,59.30
2022-10-19T08:20:11.238Z,59.10
2022-10-19T08:22:37.847Z,59.00
2022-10-19T08:25:04.369Z,59.10
2022-10-19T08:27:30.898Z,59.10
2022-10-19T08:29:57.399Z,59.00
2022-10-19T08:32:23.875Z,59.10
2022-10-19T08:34:50.351Z,59.10
2022-10-19T08:37:26.425Z,59.10
2022-10-19T08:40:03.300Z,59.20
2022-10-19T08:42:29.976Z,59.00
2022-10-19T08:44:56.592Z,59.00
2022-10-19T08:47:23.565Z,59.00
2022-10-19T08:49:50.312Z,59.00
2022-10-19T08:52:16.802Z,59.00
2022-10-19T08:54:43.345Z,59.00
2022-10-19T08:57:09.859Z,59.00
2022-10-19T08:59:36.335Z,59.20
2022-10-19T09:02:02.836Z,59.30
2022-10-19T09:04:29.306Z,59.30
2022-10-19T09:06:55.762Z,59.10
2022-10-19T09:09:22.223Z,59.30
2022-10-19T09:11:48.704Z,59.20
2022-10-19T09:14:15.199Z,59.30
2022-10-19T09:16:41.670Z,59.20
2022-10-19T09:19:09.005Z,59.40
2022-10-19T09:21:43.272Z,59.30
2022-10-19T09:24:12.763Z,59.30
2022-10-19T09:26:39.266Z,59.50
2022-10-19T09:29:05.749Z,59.30
2022-10-19T09:31:32.892Z,59.40
2022-10-19T09:34:00.853Z,59.60
2022-10-19T09:36:39.327Z,59.50
2022-10-19T09:39:13.796Z,59.60
2022-10-19T09:41:40.300Z,59.70
2022-10-19T09:44:06.779Z,59.60
2022-10-19T09:46:33.261Z,59.70
2022-10-19T09:48:59.749Z,59.70
2022-10-19T09:51:26.210Z,59.70
2022-10-19T09:53:52.695Z,59.70
2022-10-19T09:56:19.163Z,59.80
2022-10-19T09:58:45.676Z,59.80
2022-10-19T10:01:12.143Z,59.80
2022-10-19T10:03:38.636Z,59.90
2022-10-19T10:06:05.099Z,59.80
2022-10-19T10:08:31.642Z,59.90
2022-10-19T10:10:58.169Z,60.00
2022-10-19T10:13:24.681Z,59.90
2022-10-19T10:15:51.162Z,60.00
2022-10-19T10:18:17.639Z,60.00
2022-10-19T10:20:44.100Z,60.00
2022-10-19T10:23:10.579Z,60.00
2022-10-19T10:25:37.049Z,59.90
2022-10-19T10:28:03.531Z,59.70
2022-10-19T10:30:30.012Z,59.60
2022-10-19T10:33:00.366Z,59.30
2022-10-19T10:35:34.711Z,59.40
2022-10-19T10:38:01.184Z,59.70
2022-10-19T10:40:27.649Z,59.80
2022-10-19T10:42:54.104Z,60.00
2022-10-19T10:45:20.795Z,60.30
2022-10-19T10:47:47.241Z,60.30
2022-10-19T10:50:13.722Z,60.40
2022-10-19T10:52:40.191Z,60.50
2022-10-19T10:55:06.660Z,60.50
2022-10-19T10:57:33.135Z,60.30
2022-10-19T10:59:59.610Z,60.30
2022-10-19T11:04:57.450Z,60.70
2022-10-19T11:07:23.911Z,60.70
2022-10-19T11:09:50.396Z,60.70
2022-10-19T11:12:16.871Z,60.60
2022-10-19T11:14:43.337Z,60.90
2022-10-19T11:17:09.800Z,61.00
2022-10-19T11:19:36.270Z,61.00
2022-10-19T11:22:02.738Z,60.90
2022-10-19T11:26:55.612Z,61.10
2022-10-19T11:29:22.127Z,61.20
2022-10-19T11:31:48.646Z,61.10
2022-10-19T11:34:16.204Z,61.20
2022-10-19T11:36:42.901Z,61.20
2022-10-19T11:39:09.399Z,61.30
2022-10-19T11:41:35.877Z,61.20
2022-10-19T11:44:02.371Z,61.20
2022-10-19T11:46:28.830Z,61.20
2022-10-19T11:48:55.316Z,61.40
2022-10-19T11:51:22.271Z,61.30
2022-10-19T11:53:48.849Z,61.20
2022-10-19T11:56:15.321Z,61.30
2022-10-19T11:58:41.789Z,61.30
2022-10-19T12:01:08.953Z,61.30
2022-10-19T12:03:35.477Z,61.40
2022-10-19T12:06:01.942Z,61.40
2022-10-19T12:08:28.457Z,61.40
2022-10-19T12:10:54.931Z,61.50
2022-10-19T12:13:21.389Z,61.50
2022-10-19T12:15:47.868Z,61.50
2022-10-19T12:18:14.339Z,61.50
2022-10-19T12:20:40.834Z,61.60
2022-10-19T12:23:07.300Z,61.80
2022-10-19T12:25:33.778Z,61.70
2022-10-19T12:28:00.242Z,62.40
2022-10-19T12:30:26.709Z,61.60
2022-10-19T12:32:54.316Z,61.70
2022-10-19T12:35:20.987Z,61.80
2022-10-19T12:37:47.453Z,61.80
2022-10-19T12:40:13.935Z,61.80
2022-10-19T12:42:40.412Z,61.70
2022-10-19T12:45:06.930Z,61.70
2022-10-19T12:47:33.706Z,61.70
2022-10-19T12:50:00.324Z,61.70
2022-10-19T12:52:26.803Z,61.70
2022-10-19T12:54:53.301Z,61.80
2022-10-19T12:57:22.807Z,61.70
2022-10-19T12:59:49.571Z,61.70
2022-10-19T13:02:16.042Z,61.80
2022-10-19T13:04:42.538Z,61.80
2022-10-19T13:07:09.007Z,61.80
2022-10-19T13:09:35.528Z,61.80
2022-10-19T13:12:02.003Z,62.00
2022-10-19T13:14:28.460Z,61.80
2022-10-19T13:16:54.935Z,61.80
2022-10-19T13:19:21.408Z,61.80
2022-10-19T13:21:47.890Z,62.10
2022-10-19T13:24:14.392Z,61.90
2022-10-19T13:26:40.873Z,62.00
2022-10-19T13:29:07.351Z,62.00
2022-10-19T13:31:33.838Z,62.00
2022-10-19T13:34:00.434Z,62.10
2022-10-19T13:36:27.017Z,63.00
2022-10-19T13:38:53.487Z,62.20
2022-10-19T13:41:19.962Z,62.00
2022-10-19T13:43:46.422Z,62.10
2022-10-19T13:46:12.895Z,62.00
2022-10-19T13:48:39.355Z,62.00
2022-10-19T13:51:05.817Z,61.90
2022-10-19T13:53:32.288Z,61.90
2022-10-19T13:55:58.770Z,61.90
2022-10-19T13:58:25.248Z,61.90
2022-10-19T14:00:51.747Z,62.10
2022-10-19T14:03:18.225Z,62.20
2022-10-19T14:05:44.698Z,62.00
2022-10-19T14:08:11.172Z,62.10
2022-10-19T14:11:00.107Z,62.00
2022-10-19T14:13:24.097Z,62.10
2022-10-19T14:15:50.601Z,62.10
2022-10-19T14:18:19.563Z,62.20
2022-10-19T14:20:46.140Z,62.20
2022-10-19T14:23:13.046Z,62.10
2022-10-19T14:25:39.560Z,62.00
2022-10-19T14:28:06.029Z,62.10
2022-10-19T14:30:32.527Z,62.10
2022-10-19T14:33:02.074Z,62.10
2022-10-19T14:35:29.150Z,62.20
2022-10-19T14:37:55.630Z,62.30
2022-10-19T14:40:26.520Z,62.20
2022-10-19T14:42:54.483Z,62.30
2022-10-19T14:45:20.992Z,62.30
2022-10-19T14:47:47.484Z,63.20
2022-10-19T14:50:13.966Z,62.30
2022-10-19T14:52:40.447Z,62.30
2022-10-19T14:55:06.926Z,62.40
2022-10-19T14:57:33.676Z,62.30
2022-10-19T15:00:00.351Z,62.50
2022-10-19T15:02:26.821Z,62.50
2022-10-19T15:04:53.286Z,62.30
2022-10-19T15:07:19.754Z,62.40
2022-10-19T15:09:48.182Z,62.30
2022-10-19T15:12:15.170Z,62.40
2022-10-19T15:14:41.630Z,62.50
2022-10-19T15:17:08.104Z,62.40
2022-10-19T15:19:34.581Z,62.50
2022-10-19T15:22:01.056Z,62.30
2022-10-19T15:24:27.542Z,62.20
2022-10-19T15:27:06.584Z,62.30
2022-10-19T15:29:34.993Z,62.30
2022-10-19T15:32:01.466Z,62.50
2022-10-19T15:34:27.946Z,62.40
2022-10-19T15:36:54.422Z,62.40
2022-10-19T15:39:33.125Z,62.30
2022-10-19T15:42:04.504Z,62.40
2022-10-19T15:44:30.985Z,62.30
2022-10-19T15:46:57.447Z,62.30
2022-10-19T15:49:23.933Z,62.30
2022-10-19T15:51:55.155Z,62.30
2022-10-19T15:54:21.627Z,62.30
2022-10-19T15:56:48.119Z,62.30
2022-10-19T15:59:14.586Z,62.40
2022-10-19T16:01:41.088Z,62.50
2022-10-19T16:04:07.597Z,62.30
2022-10-19T16:06:34.101Z,62.30
2022-10-19T16:09:00.722Z,62.20
2022-10-19T16:11:27.284Z,62.20
2022-10-19T16:13:53.760Z,62.20
2022-10-19T16:16:20.239Z,62.30
2022-10-19T16:18:46.725Z,62.40
2022-10-19T16:21:13.197Z,62.20
2022-10-19T16:23:41.977Z,62.30
2022-10-19T16:26:08.819Z,62.30
2022-10-19T16:28:35.303Z,62.20
2022-10-19T16:31:01.806Z,62.20
2022-10-19T16:33:28.300Z,62.00
2022-10-19T16:35:54.791Z,61.80
2022-10-19T16:38:21.259Z,61.80
2022-10-19T16:40:47.748Z,61.80
2022-10-19T16:43:19.232Z,61.80
2022-10-19T16:45:45.745Z,61.80
2022-10-19T16:48:12.227Z,61.90
2022-10-19T16:50:38.764Z,61.60
2022-10-19T16:53:05.299Z,61.60
2022-10-19T16:55:31.770Z,61.50
2022-10-19T16:57:58.260Z,61.40
2022-10-19T17:00:24.747Z,61.60
2022-10-19T17:02:51.240Z,61.40
2022-10-19T17:05:17.733Z,61.40
2022-10-19T17:07:44.205Z,61.20
2022-10-19T17:10:10.744Z,61.30
2022-10-19T17:12:37.574Z,61.40
2022-10-19T17:15:40.941Z,61.30
2022-10-19T17:17:53.648Z,61.40
2022-10-19T17:20:20.124Z,61.30
2022-10-19T17:22:46.590Z,61.20
2022-10-19T17:25:13.047Z,61.30
2022-10-19T17:27:39.525Z,61.20
2022-10-19T17:30:06.012Z,61.30
2022-10-19T17:32:32.727Z,61.20
2022-10-19T17:34:59.454Z,61.20
2022-10-19T17:37:25.921Z,61.30
2022-10-19T17:39:52.389Z,61.00
2022-10-19T17:42:18.848Z,60.90
2022-10-19T17:44:45.309Z,61.10
2022-10-19T17:47:11.793Z,61.10
2022-10-19T17:49:38.271Z,60.90
2022-10-19T17:52:04.758Z,61.00
2022-10-19T17:54:36.253Z,61.00
2022-10-19T17:57:10.146Z,60.80
2022-10-19T17:59:51.997Z,60.70
2022-10-19T18:02:19.536Z,60.50
2022-10-19T18:04:45.995Z,60.80
2022-10-19T18:07:12.468Z,60.70
2022-10-19T18:09:38.932Z,60.60
2022-10-19T18:12:07.561Z,60.60
2022-10-19T18:14:34.175Z,60.50
2022-10-19T18:17:00.656Z,60.40
2022-10-19T18:19:27.135Z,60.40
2022-10-19T18:21:53.612Z,60.40
2022-10-19T18:24:20.224Z,60.40
2022-10-19T18:26:46.804Z,60.40
2022-10-19T18:29:13.273Z,60.30
2022-10-19T18:31:39.758Z,60.30
2022-10-19T18:34:06.235Z,60.30
2022-10-19T18:36:32.699Z,60.30
2022-10-19T18:38:59.180Z,60.10
2022-10-19T18:41:25.647Z,60.10
2022-10-19T18:43:52.097Z,60.00
2022-10-19T18:46:18.564Z,60.10
2022-10-19T18:48:45.042Z,60.00
2022-10-19T18:51:11.522Z,60.10
2022-10-19T18:53:37.984Z,60.10
2022-10-19T18:56:04.444Z,60.10
2022-10-19T18:58:30.916Z,60.00
2022-10-19T19:00:57.377Z,60.00
2022-10-19T19:03:23.866Z,60.00
2022-10-19T19:05:50.351Z,60.10
2022-10-19T19:08:16.835Z,60.00
2022-10-19T19:10:43.310Z,59.90
2022-10-19T19:13:09.787Z,60.00
2022-10-19T19:15:36.243Z,60.00
2022-10-19T19:18:02.719Z,59.90
2022-10-19T19:20:29.183Z,59.90
2022-10-19T19:22:55.652Z,60.00
2022-10-19T19:25:22.127Z,59.90
2022-10-19T19:27:48.615Z,60.00
2022-10-19T19:30:15.098Z,59.90
2022-10-19T19:32:41.577Z,59.90
2022-10-19T19:35:08.047Z,59.90
2022-10-19T19:37:34.722Z,59.80
2022-10-19T19:40:01.364Z,59.90
2022-10-19T19:42:28.083Z,59.90
2022-10-19T19:44:54.599Z,59.80
2022-10-19T19:47:21.057Z,59.80
2022-10-19T19:49:47.501Z,59.90
2022-10-19T19:52:13.983Z,59.70
2022-10-19T19:54:40.467Z,59.80
2022-10-19T19:57:06.940Z,59.80
2022-10-19T19:59:33.394Z,59.70
2022-10-19T20:01:59.923Z,59.70
2022-10-19T20:04:26.411Z,59.70
2022-10-19T20:06:52.898Z,59.70
2022-10-19T20:09:19.365Z,59.70
2022-10-19T20:11:45.864Z,59.70
2022-10-19T20:14:12.329Z,59.70
2022-10-19T20:16:38.797Z,59.70
2022-10-19T20:19:05.274Z,59.60
2022-10-19T20:21:31.826Z,59.60
2022-10-19T20:23:58.330Z,59.70
2022-10-19T20:26:24.824Z,59.70
2022-10-19T20:28:51.302Z,59.70
2022-10-19T20:31:17.838Z,60.30
2022-10-19T20:33:44.366Z,59.50
2022-10-19T20:36:10.857Z,59.50
2022-10-19T20:38:37.326Z,59.50
2022-10-19T20:41:08.209Z,59.50
2022-10-19T20:43:34.946Z,59.50
2022-10-19T20:46:01.428Z,59.50
2022-10-19T20:48:27.895Z,59.50
2022-10-19T20:50:54.351Z,59.40
2022-10-19T20:53:20.810Z,59.30
2022-10-19T20:55:47.268Z,59.40
2022-10-19T20:58:13.737Z,59.30
2022-10-19T21:00:40.218Z,59.40
2022-10-19T21:03:06.699Z,59.30
2022-10-19T21:05:33.168Z,59.30
2022-10-19T21:07:59.749Z,59.30
2022-10-19T21:10:26.255Z,59.20
2022-10-19T21:12:52.733Z,59.20
2022-10-19T21:15:19.240Z,59.20
2022-10-19T21:17:45.723Z,59.30
2022-10-19T21:20:12.202Z,59.00
2022-10-19T21:22:39.072Z,59.10
2022-10-19T21:25:05.770Z,59.10
2022-10-19T21:27:32.351Z,59.00
2022-10-19T21:29:58.986Z,58.90
2022-10-19T21:32:25.489Z,59.00
2022-10-19T21:34:51.953Z,59.00
2022-10-19T21:37:18.440Z,59.00
2022-10-19T21:39:44.893Z,58.90
2022-10-19T21:42:11.372Z,59.00
2022-10-19T21:44:37.851Z,58.90
2022-10-19T21:47:04.536Z,58.90
2022-10-19T21:49:31.024Z,59.00
2022-10-19T21:51:57.513Z,58.90
2022-10-19T21:54:23.971Z,58.90
2022-10-19T21:56:50.443Z,58.90
2022-10-19T21:59:16.908Z,58.80
2022-10-19T22:01:43.452Z,58.80
2022-10-19T22:04:10.190Z,58.80
2022-10-19T22:06:36.651Z,58.70
2022-10-19T22:09:03.171Z,58.70
2022-10-19T22:11:29.719Z,58.90
2022-10-19T22:13:56.181Z,58.70
2022-10-19T22:16:22.642Z,58.60
2022-10-19T22:18:49.107Z,58.60
2022-10-19T22:21:15.564Z,58.50
2022-10-19T22:23:42.045Z,58.50
2022-10-19T22:26:08.521Z,59.20
2022-10-19T22:28:35.003Z,58.40
2022-10-19T22:31:01.479Z,58.40
2022-10-19T22:33:27.957Z,58.50
2022-10-19T22:35:54.430Z,58.30
2022-10-19T22:38:20.917Z,58.40
2022-10-19T22:40:47.394Z,58.30
2022-10-19T22:43:13.863Z,58.40
2022-10-19T22:45:40.323Z,58.20
2022-10-19T22:48:06.999Z,58.20
2022-10-19T22:50:33.498Z,58.20
2022-10-19T22:52:59.972Z,58.10
2022-10-19T22:55:26.438Z,58.20
2022-10-19T22:57:52.914Z,58.10
2022-10-19T23:00:19.367Z,58.10
2022-10-19T23:02:45.833Z,58.10
2022-10-19T23:05:12.295Z,58.10
2022-10-19T23:07:38.938Z,58.10
2022-10-19T23:10:05.613Z,58.20
2022-10-19T23:12:32.082Z,58.10
2022-10-19T23:14:58.549Z,58.00
2022-10-19T23:17:25.018Z,58.10
2022-10-19T23:19:51.494Z,58.10
2022-10-19T23:22:17.982Z,58.00
2022-10-19T23:24:44.454Z,58.00
2022-10-19T23:27:10.943Z,58.00
2022-10-19T23:29:37.415Z,58.00
2022-10-19T23:32:03.916Z,58.00
2022-10-19T23:34:30.438Z,57.90
2022-10-19T23:36:56.980Z,58.00
2022-10-19T23:39:23.444Z,57.90
2022-10-19T23:41:49.932Z,57.90
2022-10-19T23:44:16.385Z,57.80
2022-10-19T23:46:42.877Z,57.80
2022-10-19T23:49:09.360Z,57.90
2022-10-19T23:51:35.843Z,57.80
2022-10-19T23:54:02.312Z,57.80
2022-10-19T23:56:28.803Z,58.40
2022-10-19T23:58:55.282Z,57.70
